Time;durP1;ratioP1;P1;durP2;ratioP2;P2;SDS_P1;SDS_P2;PMS_P1;PMS_P2;Temp;Humidity;BMP_temperature;BMP_pressure;BME280_temperature;BME280_humidity;BME280_pressure;Samples;Min_cycle;Max_cycle;Signal;HPM_P1;HPM_P2
2022/03/07 00:02:14;;;;;;;9.20;2.65;;;0.90;99.90;;;;;;5070010;28;20040;-68
2022/03/07 00:04:40;;;;;;;7.28;2.33;;;0.90;99.90;;;;;;5070247;28;20401;-68
2022/03/07 00:07:06;;;;;;;5.47;2.40;;;0.80;99.90;;;;;;5074715;28;20035;-68
2022/03/07 00:09:32;;;;;;;9.38;2.80;;;0.80;99.90;;;;;;5072450;28;20056;-68
2022/03/07 00:11:57;;;;;;;6.78;2.35;;;0.70;99.90;;;;;;5073482;28;21402;-68
2022/03/07 00:14:23;;;;;;;8.52;2.60;;;0.70;99.90;;;;;;5070181;28;20033;-68
2022/03/07 00:16:49;;;;;;;4.97;2.10;;;0.70;99.90;;;;;;5089320;28;20464;-66
2022/03/07 00:19:14;;;;;;;5.57;2.20;;;0.70;99.90;;;;;;5069831;28;20064;-67
2022/03/07 00:21:40;;;;;;;10.38;2.42;;;0.60;99.90;;;;;;5070371;28;20044;-67
2022/03/07 00:24:07;;;;;;;7.75;2.47;;;0.60;99.90;;;;;;5067350;28;20040;-67
2022/03/07 00:26:33;;;;;;;6.32;2.58;;;0.60;99.90;;;;;;5100820;28;20389;-67
2022/03/07 00:28:59;;;;;;;8.15;2.50;;;0.60;99.90;;;;;;5073070;28;20531;-67
2022/03/07 00:31:24;;;;;;;7.65;2.58;;;0.50;99.90;;;;;;5075263;28;20044;-68
2022/03/07 00:33:50;;;;;;;5.93;2.40;;;0.50;99.90;;;;;;5068887;28;20077;-67
2022/03/07 00:36:18;;;;;;;10.73;2.70;;;0.50;99.90;;;;;;5074000;28;20413;-68
2022/03/07 00:38:43;;;;;;;9.10;2.50;;;0.40;99.90;;;;;;5071953;28;20066;-68
2022/03/07 00:41:09;;;;;;;5.13;2.42;;;0.40;99.90;;;;;;5077753;28;20100;-68
2022/03/07 00:43:35;;;;;;;5.18;2.60;;;0.40;99.90;;;;;;5074659;28;20044;-67
2022/03/07 00:46:02;;;;;;;10.52;2.67;;;0.30;99.90;;;;;;5076231;28;21211;-67
2022/03/07 00:48:27;;;;;;;12.25;2.60;;;0.30;99.90;;;;;;5069888;28;20119;-67
2022/03/07 00:50:53;;;;;;;9.40;2.53;;;0.30;99.90;;;;;;5075936;28;20558;-67
2022/03/07 00:53:23;;;;;;;6.30;2.70;;;0.30;99.90;;;;;;5075331;28;20534;-67
2022/03/07 00:55:49;;;;;;;7.32;2.88;;;0.20;99.90;;;;;;5099555;28;20497;-67
2022/03/07 00:58:15;;;;;;;6.93;2.47;;;0.20;99.90;;;;;;5071449;28;20047;-67
2022/03/07 01:00:41;;;;;;;7.63;2.67;;;0.20;99.90;;;;;;5070682;28;20405;-68
2022/03/07 01:03:09;;;;;;;9.63;2.42;;;0.20;99.90;;;;;;5076740;28;20042;-68
2022/03/07 01:05:35;;;;;;;12.40;3.22;;;0.20;99.90;;;;;;5083654;28;20537;-68
2022/03/07 01:08:01;;;;;;;5.32;3.10;;;0.30;99.90;;;;;;5070464;28;20071;-68
2022/03/07 01:10:27;;;;;;;7.50;3.13;;;0.30;99.90;;;;;;5073597;28;20063;-68
2022/03/07 01:12:52;;;;;;;8.32;2.92;;;0.30;99.90;;;;;;5073349;28;20079;-68
2022/03/07 01:15:18;;;;;;;14.68;3.05;;;0.40;99.90;;;;;;5069195;28;20063;-67
2022/03/07 01:17:44;;;;;;;5.32;3.05;;;0.40;99.90;;;;;;5067636;28;20131;-67
2022/03/07 01:20:11;;;;;;;6.32;3.00;;;0.30;99.90;;;;;;5071580;28;20042;-67
2022/03/07 01:22:37;;;;;;;5.28;2.72;;;0.30;99.90;;;;;;5065710;28;20482;-67
2022/03/07 01:25:05;;;;;;;7.30;3.15;;;0.20;99.90;;;;;;5071303;28;20486;-67
2022/03/07 01:27:32;;;;;;;7.40;3.08;;;0.20;99.90;;;;;;5072036;28;20455;-67
2022/03/07 01:29:57;;;;;;;9.35;2.75;;;0.10;99.90;;;;;;5072649;28;20041;-67
2022/03/07 01:32:23;;;;;;;6.03;2.60;;;0.10;99.90;;;;;;5069176;28;20048;-67
2022/03/07 01:34:49;;;;;;;11.75;3.17;;;0.00;99.90;;;;;;5072747;28;20044;-67
2022/03/07 01:37:15;;;;;;;10.02;3.42;;;0.00;99.90;;;;;;5068853;28;20071;-68
2022/03/07 01:39:40;;;;;;;15.93;3.50;;;0.00;99.90;;;;;;5072971;28;20036;-67
2022/03/07 01:42:06;;;;;;;9.65;4.05;;;0.00;99.90;;;;;;5069335;28;20039;-67
2022/03/07 01:44:32;;;;;;;10.90;3.70;;;-0.10;99.90;;;;;;5089483;28;20418;-67
2022/03/07 01:46:58;;;;;;;7.13;3.33;;;-0.10;99.90;;;;;;5082847;28;20430;-67
2022/03/07 01:49:24;;;;;;;9.30;3.83;;;-0.10;99.90;;;;;;5066006;28;20131;-68
2022/03/07 01:51:51;;;;;;;11.63;4.03;;;-0.10;99.90;;;;;;5066877;28;20484;-67
2022/03/07 01:54:18;;;;;;;7.78;3.33;;;-0.10;99.90;;;;;;5102388;28;20044;-67
2022/03/07 01:56:46;;;;;;;8.40;3.20;;;-0.20;99.90;;;;;;5069943;28;20050;-67
2022/03/07 01:59:18;;;;;;;10.18;3.38;;;-0.20;99.90;;;;;;5066810;28;20055;-67
2022/03/07 02:01:44;;;;;;;6.68;3.45;;;-0.20;99.90;;;;;;5070737;28;20063;-67
2022/03/07 02:04:10;;;;;;;8.43;3.42;;;-0.30;99.90;;;;;;5067118;28;20041;-67
2022/03/07 02:06:39;;;;;;;11.98;4.10;;;-0.30;99.90;;;;;;5073870;28;20428;-67
2022/03/07 02:09:07;;;;;;;6.63;3.92;;;-0.30;99.90;;;;;;5064292;28;20056;-67
2022/03/07 02:11:34;;;;;;;9.05;3.53;;;-0.40;99.90;;;;;;5067714;28;20051;-67
2022/03/07 02:14:18;;;;;;;8.40;3.22;;;-0.40;99.90;;;;;;5069673;28;20041;-67
2022/03/07 02:16:45;;;;;;;10.40;3.92;;;-0.40;99.90;;;;;;5065725;28;20044;-67
2022/03/07 02:19:11;;;;;;;9.88;3.70;;;-0.40;99.90;;;;;;5069634;28;20393;-67
2022/03/07 02:21:46;;;;;;;8.20;3.63;;;-0.40;99.90;;;;;;5072501;28;20044;-68
2022/03/07 02:24:13;;;;;;;10.63;3.00;;;-0.40;99.90;;;;;;5073680;28;20498;-68
2022/03/07 02:26:39;;;;;;;6.35;3.83;;;-0.40;99.90;;;;;;5075771;28;20109;-68
2022/03/07 02:29:07;;;;;;;9.55;3.90;;;-0.50;99.90;;;;;;5081287;28;20630;-67
2022/03/07 02:31:34;;;;;;;7.93;3.35;;;-0.50;99.90;;;;;;5075295;28;20113;-67
2022/03/07 02:34:01;;;;;;;7.30;3.28;;;-0.50;99.90;;;;;;5094976;28;20492;-67
2022/03/07 02:36:27;;;;;;;9.55;3.47;;;-0.60;99.90;;;;;;5075424;28;20074;-67
2022/03/07 02:38:52;;;;;;;6.68;3.70;;;-0.60;99.90;;;;;;5081143;28;20490;-67
2022/03/07 02:41:19;;;;;;;10.95;3.95;;;-0.60;99.90;;;;;;5072388;28;20032;-67
2022/03/07 02:43:44;;;;;;;14.77;4.53;;;-0.60;99.90;;;;;;5072942;28;20041;-67
2022/03/07 02:46:10;;;;;;;8.27;4.10;;;-0.60;99.90;;;;;;5072549;28;20055;-67
2022/03/07 02:48:36;;;;;;;12.80;4.20;;;-0.60;99.90;;;;;;5073364;28;20320;-68
2022/03/07 02:51:01;;;;;;;7.82;3.92;;;-0.60;99.90;;;;;;5075444;28;20070;-67
2022/03/07 02:53:27;;;;;;;7.35;4.32;;;-0.60;99.90;;;;;;5076361;28;20516;-67
2022/03/07 02:55:54;;;;;;;7.07;3.45;;;-0.60;99.90;;;;;;5074776;28;20056;-67
2022/03/07 02:58:19;;;;;;;9.88;4.18;;;-0.70;99.90;;;;;;5077848;28;20134;-67
2022/03/07 03:00:45;;;;;;;9.40;4.32;;;-0.70;99.90;;;;;;5078305;28;20044;-67
2022/03/07 03:03:11;;;;;;;9.40;4.13;;;-0.70;99.90;;;;;;5072614;28;20106;-68
2022/03/07 03:05:36;;;;;;;10.57;4.20;;;-0.70;99.90;;;;;;5089882;28;20048;-67
2022/03/07 03:08:02;;;;;;;10.23;3.58;;;-0.70;99.90;;;;;;5072696;28;20068;-67
2022/03/07 03:10:28;;;;;;;11.70;3.80;;;-0.70;99.90;;;;;;5076289;28;20041;-67
2022/03/07 03:12:53;;;;;;;5.57;3.40;;;-0.80;99.90;;;;;;5072321;28;20040;-67
2022/03/07 03:15:19;;;;;;;10.63;3.65;;;-0.80;99.90;;;;;;5069078;28;20116;-67
2022/03/07 03:17:45;;;;;;;9.43;3.83;;;-0.80;99.90;;;;;;5069010;28;20162;-66
2022/03/07 03:20:12;;;;;;;11.82;4.28;;;-0.80;99.90;;;;;;5073042;28;20473;-67
2022/03/07 03:22:39;;;;;;;9.15;4.20;;;-0.80;99.90;;;;;;5073351;28;20036;-67
2022/03/07 03:25:06;;;;;;;6.68;3.63;;;-0.80;99.90;;;;;;5074474;28;20044;-68
2022/03/07 03:27:32;;;;;;;15.63;7.45;;;-0.80;99.90;;;;;;5068332;28;20159;-67
2022/03/07 03:29:58;;;;;;;10.68;4.53;;;-0.80;99.90;;;;;;5077229;22;20109;-63
2022/03/07 03:32:25;;;;;;;10.68;4.50;;;-0.90;99.90;;;;;;5009724;28;20096;-64
2022/03/07 03:34:51;;;;;;;8.52;4.30;;;-0.90;99.90;;;;;;5012244;28;20060;-65
2022/03/07 03:37:17;;;;;;;8.55;3.97;;;-0.90;99.90;;;;;;4991782;28;20499;-66
2022/03/07 03:39:42;;;;;;;11.30;4.10;;;-0.90;99.90;;;;;;5008150;28;20391;-64
2022/03/07 03:42:08;;;;;;;13.23;4.80;;;-0.90;99.90;;;;;;5023785;28;20048;-64
2022/03/07 03:44:34;;;;;;;12.38;4.80;;;-1.00;99.90;;;;;;5028119;28;20049;-65
2022/03/07 03:46:59;;;;;;;8.90;3.83;;;-0.90;99.90;;;;;;4991411;28;21531;-65
2022/03/07 03:49:25;;;;;;;9.68;4.22;;;-1.00;99.90;;;;;;5023048;28;20264;-63
2022/03/07 03:51:50;;;;;;;12.60;4.70;;;0.80;99.90;;;;;;5010759;28;20133;-64
2022/03/07 03:54:19;;;;;;;;;;;-1.00;99.90;;;;;;5031226;28;20048;-64
2022/03/07 03:56:45;;;;;;;13.57;5.13;;;-1.00;99.90;;;;;;5010232;28;20008;-63
2022/03/07 03:59:10;;;;;;;8.00;3.85;;;-1.00;99.90;;;;;;5011757;28;20414;-65
2022/03/07 04:01:36;;;;;;;13.25;4.47;;;-1.10;99.90;;;;;;5024480;28;20034;-63
2022/03/07 04:04:01;;;;;;;7.88;4.55;;;-1.00;99.90;;;;;;5007001;28;20053;-64
2022/03/07 04:06:27;;;;;;;14.45;4.80;;;-1.00;99.90;;;;;;5025432;28;20487;-64
2022/03/07 04:08:56;;;;;;;8.63;3.90;;;-1.10;99.90;;;;;;5022689;28;20053;-65
2022/03/07 04:11:22;;;;;;;12.18;4.93;;;-1.10;99.90;;;;;;5007395;28;20075;-65
2022/03/07 04:13:50;;;;;;;;;;;-1.10;99.90;;;;;;5010755;28;20541;-65
2022/03/07 04:16:16;;;;;;;12.55;4.68;;;-1.10;99.90;;;;;;5025687;28;20019;-64
2022/03/07 04:18:42;;;;;;;10.38;4.55;;;0.00;99.90;;;;;;5029837;28;20499;-65
2022/03/07 04:21:07;;;;;;;6.45;3.95;;;-1.10;99.90;;;;;;5026255;28;20381;-65
2022/03/07 04:23:34;;;;;;;10.90;4.32;;;-1.10;99.90;;;;;;5021951;28;20137;-64
2022/03/07 04:25:59;;;;;;;8.88;4.95;;;-1.10;99.90;;;;;;5023285;28;20052;-64
2022/03/07 04:28:25;;;;;;;14.18;5.22;;;-1.10;99.90;;;;;;4990717;28;20033;-65
2022/03/07 04:30:51;;;;;;;11.85;5.13;;;-1.20;99.90;;;;;;4981644;28;20050;-64
2022/03/07 04:33:16;;;;;;;14.30;5.10;;;-1.10;99.90;;;;;;5001903;28;20431;-66
2022/03/07 04:35:42;;;;;;;11.85;5.35;;;-1.10;99.90;;;;;;5004676;28;20396;-65
2022/03/07 04:38:09;;;;;;;10.30;4.90;;;-1.10;99.90;;;;;;5002408;28;20050;-65
2022/03/07 04:40:34;;;;;;;13.45;4.85;;;-1.20;99.90;;;;;;5003704;28;20487;-65
2022/03/07 04:43:01;;;;;;;12.43;5.32;;;-1.20;99.90;;;;;;4972362;28;20088;-66
2022/03/07 04:45:27;;;;;;;11.05;4.63;;;-1.30;99.90;;;;;;5003940;28;20038;-65
2022/03/07 04:47:52;;;;;;;10.27;4.90;;;-1.20;99.90;;;;;;4989752;28;20096;-65
2022/03/07 04:50:18;;;;;;;12.85;4.88;;;-1.30;99.90;;;;;;5003595;28;20038;-63
2022/03/07 04:52:43;;;;;;;11.68;5.05;;;-2.10;99.90;;;;;;4974410;28;20045;-64
2022/03/07 04:55:11;;;;;;;8.80;4.82;;;-1.30;99.90;;;;;;5005156;28;20470;-64
2022/03/07 04:57:38;;;;;;;16.27;5.18;;;-1.30;99.90;;;;;;4990239;28;20069;-65
2022/03/07 05:00:07;;;;;;;11.07;5.55;;;-1.30;99.90;;;;;;5003843;28;20057;-65
2022/03/07 05:02:33;;;;;;;14.27;5.50;;;-1.30;99.90;;;;;;4983220;28;20050;-65
2022/03/07 05:04:58;;;;;;;10.13;4.93;;;-1.30;99.90;;;;;;4987281;28;20038;-64
2022/03/07 05:07:24;;;;;;;15.77;5.45;;;-1.30;99.90;;;;;;5003759;28;20089;-65
2022/03/07 05:09:49;;;;;;;12.90;5.40;;;-1.30;99.90;;;;;;5002285;28;20406;-64
2022/03/07 05:12:15;;;;;;;11.88;6.10;;;-1.30;99.90;;;;;;4985307;28;20042;-65
2022/03/07 05:14:41;;;;;;;13.82;5.50;;;-1.30;99.90;;;;;;5005951;28;20103;-64
2022/03/07 05:17:07;;;;;;;7.82;4.70;;;-1.40;99.90;;;;;;4986678;28;20044;-64
2022/03/07 05:19:32;;;;;;;9.75;5.38;;;-1.40;99.90;;;;;;5005311;28;20518;-65
2022/03/07 05:21:58;;;;;;;10.50;5.35;;;-1.40;99.90;;;;;;4970079;28;20038;-64
2022/03/07 05:24:25;;;;;;;13.88;5.65;;;-1.40;99.90;;;;;;5003298;28;20050;-65
2022/03/07 05:26:52;;;;;;;13.73;6.00;;;-1.40;99.90;;;;;;4993795;28;20163;-66
2022/03/07 05:29:17;;;;;;;10.23;5.72;;;-1.40;99.90;;;;;;5006420;28;20369;-64
2022/03/07 05:31:43;;;;;;;15.57;6.35;;;-1.40;99.90;;;;;;5004472;28;20846;-64
2022/03/07 05:34:09;;;;;;;15.80;5.53;;;-1.40;99.90;;;;;;4995504;28;20117;-65
2022/03/07 05:36:35;;;;;;;13.23;6.60;;;-1.40;99.90;;;;;;4990862;28;20453;-65
2022/03/07 05:39:00;;;;;;;9.98;5.82;;;-1.40;99.90;;;;;;4990924;28;20046;-65
2022/03/07 05:41:26;;;;;;;14.88;5.53;;;-1.30;99.90;;;;;;4999384;28;20123;-66
2022/03/07 05:43:52;;;;;;;13.82;6.30;;;-1.40;99.90;;;;;;5002994;28;20045;-65
2022/03/07 05:46:18;;;;;;;15.40;6.13;;;-1.40;99.90;;;;;;5001811;28;20088;-65
2022/03/07 05:48:43;;;;;;;11.68;5.70;;;-1.40;99.90;;;;;;5003759;28;20078;-65
2022/03/07 05:51:09;;;;;;;18.17;6.20;;;-1.40;99.90;;;;;;4988929;28;20044;-65
2022/03/07 05:53:34;;;;;;;11.35;6.10;;;-1.50;99.90;;;;;;4988555;28;20043;-64
2022/03/07 05:56:00;;;;;;;13.48;6.93;;;-1.50;99.90;;;;;;4992300;28;20524;-65
2022/03/07 05:58:26;;;;;;;12.52;5.57;;;-1.50;99.90;;;;;;5008315;28;20519;-64
2022/03/07 06:00:51;;;;;;;12.55;5.95;;;-1.50;99.90;;;;;;5005839;28;20236;-64
2022/03/07 06:03:17;;;;;;;12.27;5.65;;;-1.60;99.90;;;;;;4974637;28;20136;-64
2022/03/07 06:05:42;;;;;;;10.27;5.65;;;-1.60;99.90;;;;;;5005651;28;20029;-65
2022/03/07 06:08:08;;;;;;;11.95;6.88;;;-1.60;99.90;;;;;;4983899;28;20474;-65
2022/03/07 06:10:34;;;;;;;11.60;6.28;;;-1.60;99.90;;;;;;4993636;28;20042;-65
2022/03/07 06:13:00;;;;;;;10.30;5.63;;;-1.60;99.90;;;;;;5011632;28;20034;-65
2022/03/07 06:15:25;;;;;;;12.10;6.13;;;-1.60;99.90;;;;;;4991909;28;20116;-64
2022/03/07 06:17:58;;;;;;;13.02;6.93;;;-1.60;99.90;;;;;;5006412;28;20176;-64
2022/03/07 06:20:25;;;;;;;11.38;6.90;;;-1.60;99.90;;;;;;4989297;28;20038;-65
2022/03/07 06:22:51;;;;;;;10.85;6.30;;;-1.60;99.90;;;;;;5005346;28;20065;-64
2022/03/07 06:25:17;;;;;;;19.33;6.53;;;-1.60;99.90;;;;;;5008549;28;20048;-64
2022/03/07 06:27:43;;;;;;;17.05;7.22;;;-1.50;99.90;;;;;;4994830;28;20052;-68
2022/03/07 06:30:09;;;;;;;13.60;6.68;;;-1.50;99.90;;;;;;4992380;28;20380;-66
2022/03/07 06:32:36;;;;;;;13.50;6.78;;;-1.50;99.90;;;;;;4977623;28;20354;-65
2022/03/07 06:35:03;;;;;;;10.75;7.05;;;-1.50;99.90;;;;;;5003761;28;20078;-66
2022/03/07 06:37:29;;;;;;;15.43;7.68;;;-1.50;99.90;;;;;;4963901;28;20046;-63
2022/03/07 06:39:55;;;;;;;16.35;8.30;;;-1.40;99.90;;;;;;4990933;28;20042;-64
2022/03/07 06:42:20;;;;;;;19.02;8.57;;;-1.40;99.90;;;;;;5006310;28;20053;-64
2022/03/07 06:44:46;;;;;;;13.90;7.32;;;-1.40;99.90;;;;;;4988976;28;20507;-65
2022/03/07 06:47:13;;;;;;;16.85;7.72;;;-1.40;99.90;;;;;;4997521;28;20038;-64
2022/03/07 06:49:40;;;;;;;10.70;6.32;;;-1.30;99.90;;;;;;4988893;28;20057;-66
2022/03/07 06:52:06;;;;;;;14.75;6.88;;;-1.30;99.90;;;;;;5012306;28;20077;-64
2022/03/07 06:54:32;;;;;;;16.48;6.93;;;-1.30;99.90;;;;;;4988398;28;20034;-66
2022/03/07 06:56:57;;;;;;;14.93;8.77;;;-1.10;99.90;;;;;;4990290;28;20045;-63
2022/03/07 06:59:23;;;;;;;15.32;8.40;;;-1.20;99.90;;;;;;4990944;28;20382;-65
2022/03/07 07:01:49;;;;;;;14.25;8.23;;;-1.10;99.90;;;;;;5007145;28;20507;-65
2022/03/07 07:04:15;;;;;;;17.35;8.88;;;-1.00;99.90;;;;;;5011213;28;20042;-65
2022/03/07 07:06:40;;;;;;;12.27;7.78;;;-0.90;99.90;;;;;;4975207;28;20042;-65
2022/03/07 07:09:06;;;;;;;20.33;9.65;;;-0.90;99.90;;;;;;5009924;28;20038;-65
2022/03/07 07:11:31;;;;;;;16.75;8.15;;;-0.80;99.90;;;;;;4976364;28;20045;-64
2022/03/07 07:13:57;;;;;;;16.75;8.45;;;-0.70;99.90;;;;;;4991898;28;20042;-66
2022/03/07 07:16:23;;;;;;;17.50;8.75;;;-0.60;99.90;;;;;;4987233;28;20412;-65
2022/03/07 07:18:49;;;;;;;16.23;8.50;;;-0.50;99.90;;;;;;4985948;28;20050;-64
2022/03/07 07:21:14;;;;;;;18.13;7.65;;;-0.40;99.90;;;;;;4991745;28;20069;-65
2022/03/07 07:23:40;;;;;;;15.30;8.13;;;-0.30;99.90;;;;;;4987035;28;20121;-66
2022/03/07 07:26:06;;;;;;;32.80;9.30;;;-0.20;99.90;;;;;;4994780;28;20507;-66
2022/03/07 07:28:33;;;;;;;16.23;8.30;;;-0.10;99.90;;;;;;4989824;28;20484;-66
2022/03/07 07:30:59;;;;;;;19.92;7.82;;;0.00;99.90;;;;;;4990619;28;20061;-66
2022/03/07 07:33:25;;;;;;;15.52;7.75;;;0.10;99.90;;;;;;4990890;28;20065;-65
2022/03/07 07:35:50;;;;;;;18.27;7.90;;;0.30;99.90;;;;;;4990767;28;20161;-65
2022/03/07 07:38:16;;;;;;;12.05;6.90;;;0.40;99.90;;;;;;4991030;28;20053;-65
2022/03/07 07:40:42;;;;;;;15.80;6.65;;;0.50;99.90;;;;;;5007289;28;20034;-65
2022/03/07 07:43:07;;;;;;;16.00;7.18;;;0.70;99.90;;;;;;5009049;28;20046;-65
2022/03/07 07:45:34;;;;;;;11.05;6.15;;;0.90;99.90;;;;;;5004384;28;20073;-66
2022/03/07 07:47:59;;;;;;;16.58;6.65;;;1.10;99.90;;;;;;5006227;28;20081;-65
2022/03/07 07:50:26;;;;;;;16.08;5.95;;;1.30;99.90;;;;;;5007619;28;20080;-67
2022/03/07 07:52:51;;;;;;;13.45;5.47;;;1.50;99.90;;;;;;5009793;28;20085;-65
2022/03/07 07:55:17;;;;;;;24.35;6.80;;;2.40;99.90;;;;;;4990344;28;20476;-64
2022/03/07 07:57:43;;;;;;;16.52;5.07;;;1.90;99.90;;;;;;4975245;28;20137;-65
2022/03/07 08:00:10;;;;;;;7.82;4.45;;;2.00;99.90;;;;;;5002867;28;20137;-65
2022/03/07 08:02:36;;;;;;;11.10;4.10;;;2.20;99.90;;;;;;5000428;28;20105;-65
2022/03/07 08:05:03;;;;;;;9.15;3.75;;;2.50;99.90;;;;;;5007501;28;20555;-64
2022/03/07 08:07:29;;;;;;;7.65;3.75;;;2.60;99.90;;;;;;5009340;28;20053;-65
2022/03/07 08:09:55;;;;;;;8.45;3.30;;;2.70;99.90;;;;;;4989679;28;20033;-65
2022/03/07 08:12:20;;;;;;;10.35;3.70;;;2.90;99.90;;;;;;5005704;28;20470;-65
2022/03/07 08:14:46;;;;;;;14.05;3.78;;;3.00;99.90;;;;;;5007380;28;20042;-66
2022/03/07 08:17:12;;;;;;;11.88;4.38;;;3.10;99.90;;;;;;4992049;28;20038;-64
2022/03/07 08:19:38;;;;;;;10.82;3.75;;;3.30;99.90;;;;;;5007007;28;20050;-65
2022/03/07 08:22:04;;;;;;;8.23;3.83;;;3.50;99.90;;;;;;5009621;28;20144;-66
2022/03/07 08:24:30;;;;;;;10.50;4.30;;;3.80;99.90;;;;;;4986968;28;20476;-65
2022/03/07 08:26:57;;;;;;;9.57;3.88;;;4.00;99.90;;;;;;4989197;28;20081;-65
2022/03/07 08:29:24;;;;;;;13.63;3.65;;;4.10;99.90;;;;;;5002878;28;20092;-65
2022/03/07 08:31:49;;;;;;;9.25;3.47;;;4.20;99.90;;;;;;4991623;28;20050;-65
2022/03/07 08:34:16;;;;;;;8.75;3.38;;;4.30;99.90;;;;;;5007320;28;20476;-66
2022/03/07 08:36:41;;;;;;;11.00;3.55;;;4.40;99.90;;;;;;5008542;28;20451;-66
2022/03/07 08:39:07;;;;;;;10.20;3.50;;;4.40;99.90;;;;;;4990400;28;20053;-66
2022/03/07 08:41:34;;;;;;;7.80;3.40;;;4.50;99.90;;;;;;5009656;28;20112;-66
2022/03/07 08:44:00;;;;;;;18.77;3.50;;;4.70;99.90;;;;;;5007226;28;20511;-67
2022/03/07 08:46:26;;;;;;;11.52;3.22;;;4.60;99.90;;;;;;5000141;28;20127;-65
2022/03/07 08:48:52;;;;;;;8.80;3.08;;;4.70;99.90;;;;;;4990801;28;20470;-65
2022/03/07 08:51:18;;;;;;;8.80;3.28;;;4.80;99.90;;;;;;4974450;28;20041;-65
2022/03/07 08:53:43;;;;;;;8.68;3.25;;;4.90;99.90;;;;;;5008503;28;20049;-66
2022/03/07 08:56:11;;;;;;;10.40;3.83;;;4.90;99.90;;;;;;5006457;28;20081;-65
2022/03/07 08:58:36;;;;;;;6.22;2.70;;;5.10;99.90;;;;;;5007603;28;20057;-66
2022/03/07 09:01:02;;;;;;;8.90;2.35;;;5.20;99.90;;;;;;4989009;28;20042;-66
2022/03/07 09:03:29;;;;;;;6.68;2.30;;;5.30;99.90;;;;;;5006971;28;20062;-66
2022/03/07 09:05:55;;;;;;;6.03;2.28;;;5.80;99.90;;;;;;4977865;28;20070;-65
2022/03/07 09:08:20;;;;;;;9.77;2.20;;;5.60;99.90;;;;;;4983051;28;20061;-65
2022/03/07 09:10:46;;;;;;;9.13;2.15;;;5.70;99.90;;;;;;5007885;28;20049;-66
2022/03/07 09:13:12;;;;;;;7.32;2.13;;;5.90;99.90;;;;;;5006522;28;20064;-65
2022/03/07 09:15:37;;;;;;;9.85;2.40;;;6.10;99.90;;;;;;5000766;28;20139;-65
2022/03/07 09:18:03;;;;;;;5.07;2.13;;;6.20;99.90;;;;;;4992550;28;20121;-65
2022/03/07 09:20:29;;;;;;;5.95;2.17;;;6.40;99.90;;;;;;5007995;28;20443;-65
2022/03/07 09:22:54;;;;;;;8.15;2.65;;;6.50;99.90;;;;;;5006963;28;20045;-64
2022/03/07 09:25:20;;;;;;;9.95;2.17;;;6.70;99.90;;;;;;5005849;28;20056;-65
2022/03/07 09:27:46;;;;;;;7.25;2.25;;;6.80;99.90;;;;;;4991447;28;20053;-65
2022/03/07 09:30:14;;;;;;;7.53;2.85;;;7.00;99.90;;;;;;4999191;28;20602;-65
2022/03/07 09:32:40;;;;;;;8.00;2.72;;;7.10;99.90;;;;;;5003388;28;20462;-65
2022/03/07 09:35:06;;;;;;;5.10;2.30;;;7.30;99.90;;;;;;5006391;28;20045;-65
2022/03/07 09:37:32;;;;;;;9.90;2.40;;;7.40;99.90;;;;;;5004984;28;20412;-65
2022/03/07 09:39:59;;;;;;;7.85;2.60;;;7.60;99.90;;;;;;4967035;28;20046;-65
2022/03/07 09:42:26;;;;;;;7.55;2.17;;;7.70;99.90;;;;;;5004393;28;20092;-65
2022/03/07 09:44:52;;;;;;;6.68;2.10;;;7.80;99.90;;;;;;4967157;28;20459;-65
2022/03/07 09:47:21;;;;;;;6.55;1.90;;;8.40;99.90;;;;;;5001660;28;20049;-65
2022/03/07 09:49:47;;;;;;;5.88;2.05;;;8.20;99.90;;;;;;5002823;28;20056;-65
2022/03/07 09:52:12;;;;;;;7.97;2.08;;;8.20;99.90;;;;;;4980025;28;20053;-66
2022/03/07 09:54:38;;;;;;;5.68;1.90;;;8.20;99.90;;;;;;4975697;28;20085;-64
2022/03/07 09:57:04;;;;;;;7.97;1.67;;;8.30;99.90;;;;;;4988207;28;20077;-65
2022/03/07 09:59:32;;;;;;;7.97;1.83;;;8.50;99.90;;;;;;5003522;28;20050;-65
2022/03/07 10:02:04;;;;;;;6.18;2.20;;;8.80;99.90;;;;;;5003821;28;20050;-65
2022/03/07 10:04:31;;;;;;;4.93;2.10;;;8.80;99.90;;;;;;4985305;28;20068;-64
2022/03/07 10:07:01;;;;;;;8.93;2.13;;;8.60;99.90;;;;;;4991992;28;20074;-65
2022/03/07 10:09:26;;;;;;;5.43;1.88;;;8.70;99.90;;;;;;4985682;28;20054;-65
2022/03/07 10:11:55;;;;;;;6.00;1.70;;;9.10;99.90;;;;;;4987825;28;20061;-65
2022/03/07 10:14:42;;;;;;;5.63;1.80;;;9.70;99.90;;;;;;4971240;28;20096;-64
2022/03/07 10:17:26;;;;;;;6.75;1.85;;;9.80;99.90;;;;;;4981301;28;20050;-66
2022/03/07 10:19:53;;;;;;;6.15;1.77;;;9.80;99.90;;;;;;4985955;28;20129;-64
2022/03/07 10:22:22;;;;;;;7.30;2.22;;;10.30;99.90;;;;;;5003607;28;20645;-64
2022/03/07 10:25:07;;;;;;;6.40;2.10;;;10.60;99.90;;;;;;4988062;28;20049;-65
2022/03/07 10:27:37;;;;;;;10.95;2.33;;;10.10;99.90;;;;;;5000708;28;20411;-65
2022/03/07 10:30:08;;;;;;;6.82;1.90;;;10.50;99.90;;;;;;4980896;28;20094;-66
2022/03/07 10:32:36;;;;;;;6.38;1.75;;;10.90;99.90;;;;;;4982315;28;20140;-64
2022/03/07 10:35:02;;;;;;;9.45;2.13;;;11.10;99.90;;;;;;5004613;28;20045;-65
2022/03/07 10:37:35;;;;;;;8.65;2.17;;;11.10;99.90;;;;;;4974816;28;20143;-66
2022/03/07 10:40:02;;;;;;;6.63;2.00;;;11.40;99.90;;;;;;4987831;28;20143;-65
2022/03/07 10:42:28;;;;;;;10.52;2.33;;;11.50;99.90;;;;;;5006969;28;20703;-66
2022/03/07 10:45:06;;;;;;;7.70;2.05;;;11.60;99.90;;;;;;4974911;28;20148;-64
2022/03/07 10:47:31;;;;;;;7.53;2.30;;;12.10;99.90;;;;;;4992349;28;20061;-64
2022/03/07 10:50:00;;;;;;;6.43;1.88;;;12.60;99.90;;;;;;5009374;28;20496;-65
2022/03/07 10:52:41;;;;;;;10.30;1.88;;;13.00;99.90;;;;;;5006239;28;20478;-65
2022/03/07 10:55:09;;;;;;;5.47;2.15;;;13.00;98.50;;;;;;5003680;28;20054;-65
2022/03/07 10:57:41;;;;;;;6.75;1.75;;;12.60;95.80;;;;;;5008667;28;20773;-65
2022/03/07 11:00:13;;;;;;;4.88;2.10;;;12.10;98.30;;;;;;4978175;28;20583;-65
2022/03/07 11:02:44;;;;;;;7.03;1.80;;;12.20;98.20;;;;;;5005130;28;20515;-64
2022/03/07 11:05:11;;;;;;;5.85;1.85;;;11.70;98.90;;;;;;4988079;28;20046;-64
2022/03/07 11:07:39;;;;;;;4.60;1.80;;;11.60;96.70;;;;;;4985413;28;20570;-65
2022/03/07 11:10:10;;;;;;;5.35;2.05;;;11.30;97.90;;;;;;5009704;28;20051;-66
2022/03/07 11:12:36;;;;;;;8.02;2.55;;;11.00;99.00;;;;;;4972970;28;20125;-65
2022/03/07 11:15:18;;;;;;;5.53;1.90;;;11.20;99.90;;;;;;4992874;28;20077;-65
2022/03/07 11:17:46;;;;;;;4.80;1.95;;;11.60;98.50;;;;;;5004051;28;20053;-65
2022/03/07 11:20:17;;;;;;;7.43;2.00;;;11.80;97.40;;;;;;5004650;28;20401;-65
2022/03/07 11:22:43;;;;;;;4.03;1.83;;;12.10;95.10;;;;;;5004724;28;20046;-67
2022/03/07 11:25:10;;;;;;;5.03;2.08;;;11.90;94.80;;;;;;4991776;28;20052;-64
2022/03/07 11:27:37;;;;;;;4.43;1.80;;;12.10;93.70;;;;;;5007454;28;20097;-66
2022/03/07 11:30:20;;;;;;;3.60;1.80;;;11.60;93.40;;;;;;5007259;28;20053;-65
2022/03/07 11:32:50;;;;;;;2.92;1.75;;;11.80;93.30;;;;;;4992760;28;20050;-65
2022/03/07 11:35:16;;;;;;;3.17;1.60;;;12.40;92.30;;;;;;5005664;28;20161;-66
2022/03/07 11:37:42;;;;;;;3.45;1.45;;;12.90;88.50;;;;;;5000968;28;20137;-65
2022/03/07 11:40:23;;;;;;;5.10;2.30;;;13.10;90.30;;;;;;5004151;28;20404;-66
2022/03/07 11:42:50;;;;;;;3.55;2.00;;;13.30;87.30;;;;;;4982439;28;20611;-64
2022/03/07 11:45:21;;;;;;;3.65;1.50;;;13.30;84.50;;;;;;5003214;28;20416;-66
2022/03/07 11:47:48;;;;;;;3.72;1.58;;;13.40;82.70;;;;;;4968398;28;20050;-65
2022/03/07 11:50:18;;;;;;;3.23;1.50;;;13.50;76.00;;;;;;4983822;28;20049;-66
2022/03/07 11:52:44;;;;;;;4.32;1.63;;;13.40;75.00;;;;;;5001483;28;20041;-66
2022/03/07 11:55:21;;;;;;;4.88;1.55;;;13.20;75.50;;;;;;4988510;28;20158;-65
2022/03/07 11:57:58;;;;;;;2.90;1.30;;;13.50;70.50;;;;;;5006280;28;20116;-65
2022/03/07 12:00:31;;;;;;;5.55;1.45;;;13.70;73.90;;;;;;4988021;28;20056;-66
2022/03/07 12:03:10;;;;;;;3.67;1.48;;;13.50;72.70;;;;;;4999336;28;20149;-66
2022/03/07 12:05:36;;;;;;;3.47;1.48;;;12.90;72.70;;;;;;4990455;28;20045;-65
2022/03/07 12:08:17;;;;;;;4.35;1.50;;;12.90;75.20;;;;;;4991522;28;20038;-65
2022/03/07 12:10:58;;;;;;;3.05;1.40;;;12.70;74.80;;;;;;5003297;28;20057;-65
2022/03/07 12:13:24;;;;;;;4.35;1.80;;;12.80;79.00;;;;;;5007257;28;20142;-65
2022/03/07 12:15:54;;;;;;;3.13;1.70;;;13.30;80.50;;;;;;5004693;28;20046;-64
2022/03/07 12:18:21;;;;;;;3.35;1.55;;;13.80;77.20;;;;;;4991728;28;20095;-64
2022/03/07 12:20:58;;;;;;;3.15;1.48;;;14.00;73.30;;;;;;5005778;28;20511;-66
2022/03/07 12:23:26;;;;;;;4.22;1.90;;;14.30;71.20;;;;;;4974175;28;20133;-65
2022/03/07 12:26:01;;;;;;;5.32;1.38;;;14.20;69.50;;;;;;5006963;28;20050;-65
2022/03/07 12:28:28;;;;;;;3.17;1.60;;;13.20;66.40;;;;;;4990508;28;20125;-64
2022/03/07 12:30:55;;;;;;;3.30;1.27;;;12.90;72.30;;;;;;5006366;28;20538;-65
2022/03/07 12:33:21;;;;;;;28.98;3.85;;;12.70;64.20;;;;;;4988050;28;20057;-65
2022/03/07 12:35:47;;;;;;;3.88;1.20;;;13.00;64.20;;;;;;5006362;28;20045;-67
2022/03/07 12:38:12;;;;;;;10.05;2.28;;;12.80;61.90;;;;;;5001318;28;20041;-66
2022/03/07 12:40:38;;;;;;;4.20;1.58;;;13.30;62.60;;;;;;5000770;28;20037;-65
2022/03/07 12:43:05;;;;;;;3.65;1.35;;;13.60;63.60;;;;;;5003343;28;20495;-65
2022/03/07 12:45:33;;;;;;;5.03;1.10;;;13.60;61.20;;;;;;5003805;28;20052;-65